sensor_id;sensor_type;location;lat;lon;timestamp;P1;durP1;ratioP1;P2;durP2;ratioP2
15155;SDS011;7678;50.058;8.306;2022-10-16T00:01:48;3.63;;;2.93;;
15155;SDS011;7678;50.058;8.306;2022-10-16T00:04:16;5.80;;;3.23;;
15155;SDS011;7678;50.058;8.306;2022-10-16T00:06:45;3.03;;;2.73;;
15155;SDS011;7678;50.058;8.306;2022-10-16T00:09:14;4.47;;;2.87;;
15155;SDS011;7678;50.058;8.306;2022-10-16T00:11:42;5.63;;;3.63;;
15155;SDS011;7678;50.058;8.306;2022-10-16T00:14:11;4.30;;;3.70;;
15155;SDS011;7678;50.058;8.306;2022-10-16T00:16:41;6.60;;;4.13;;
15155;SDS011;7678;50.058;8.306;2022-10-16T00:19:11;3.53;;;3.23;;
15155;SDS011;7678;50.058;8.306;2022-10-16T00:21:43;4.43;;;3.80;;
15155;SDS011;7678;50.058;8.306;2022-10-16T00:24:16;7.77;;;3.57;;
15155;SDS011;7678;50.058;8.306;2022-10-16T00:26:44;3.43;;;3.13;;
15155;SDS011;7678;50.058;8.306;2022-10-16T00:29:15;3.87;;;3.57;;
15155;SDS011;7678;50.058;8.306;2022-10-16T00:31:43;8.70;;;3.77;;
15155;SDS011;7678;50.058;8.306;2022-10-16T00:34:13;3.80;;;3.37;;
15155;SDS011;7678;50.058;8.306;2022-10-16T00:36:43;4.30;;;4.00;;
15155;SDS011;7678;50.058;8.306;2022-10-16T00:39:11;7.17;;;3.90;;
15155;SDS011;7678;50.058;8.306;2022-10-16T00:41:39;4.03;;;3.60;;
15155;SDS011;7678;50.058;8.306;2022-10-16T00:47:11;5.07;;;3.17;;
15155;SDS011;7678;50.058;8.306;2022-10-16T00:49:44;6.40;;;3.67;;
15155;SDS011;7678;50.058;8.306;2022-10-16T00:52:14;6.70;;;3.67;;
15155;SDS011;7678;50.058;8.306;2022-10-16T00:54:44;5.23;;;3.40;;
15155;SDS011;7678;50.058;8.306;2022-10-16T00:57:14;4.10;;;3.70;;
15155;SDS011;7678;50.058;8.306;2022-10-16T00:59:46;4.47;;;3.67;;
15155;SDS011;7678;50.058;8.306;2022-10-16T01:02:14;3.70;;;3.27;;
15155;SDS011;7678;50.058;8.306;2022-10-16T01:04:46;3.40;;;3.10;;
15155;SDS011;7678;50.058;8.306;2022-10-16T01:07:18;3.87;;;3.43;;
15155;SDS011;7678;50.058;8.306;2022-10-16T01:09:59;4.67;;;3.40;;
15155;SDS011;7678;50.058;8.306;2022-10-16T01:12:38;3.77;;;3.30;;
15155;SDS011;7678;50.058;8.306;2022-10-16T01:15:17;5.70;;;3.23;;
15155;SDS011;7678;50.058;8.306;2022-10-16T01:17:52;5.13;;;3.10;;
15155;SDS011;7678;50.058;8.306;2022-10-16T01:20:30;4.87;;;3.30;;
15155;SDS011;7678;50.058;8.306;2022-10-16T01:23:09;4.10;;;3.70;;
15155;SDS011;7678;50.058;8.306;2022-10-16T01:25:50;2.90;;;2.60;;
15155;SDS011;7678;50.058;8.306;2022-10-16T01:28:29;6.57;;;3.37;;
15155;SDS011;7678;50.058;8.306;2022-10-16T01:31:05;4.57;;;2.90;;
15155;SDS011;7678;50.058;8.306;2022-10-16T01:33:35;4.63;;;4.10;;
15155;SDS011;7678;50.058;8.306;2022-10-16T01:36:10;4.27;;;3.43;;
15155;SDS011;7678;50.058;8.306;2022-10-16T01:38:41;3.30;;;3.00;;
15155;SDS011;7678;50.058;8.306;2022-10-16T01:41:14;4.60;;;3.83;;
15155;SDS011;7678;50.058;8.306;2022-10-16T01:43:48;4.43;;;3.97;;
15155;SDS011;7678;50.058;8.306;2022-10-16T01:46:22;5.80;;;3.90;;
15155;SDS011;7678;50.058;8.306;2022-10-16T01:48:51;3.10;;;2.80;;
15155;SDS011;7678;50.058;8.306;2022-10-16T01:51:20;7.90;;;3.47;;
15155;SDS011;7678;50.058;8.306;2022-10-16T01:53:52;4.87;;;3.03;;
15155;SDS011;7678;50.058;8.306;2022-10-16T01:56:22;3.67;;;3.37;;
15155;SDS011;7678;50.058;8.306;2022-10-16T01:58:57;6.00;;;3.40;;
15155;SDS011;7678;50.058;8.306;2022-10-16T02:01:30;3.73;;;3.33;;
15155;SDS011;7678;50.058;8.306;2022-10-16T02:04:02;3.73;;;3.30;;
15155;SDS011;7678;50.058;8.306;2022-10-16T02:06:34;5.87;;;3.80;;
15155;SDS011;7678;50.058;8.306;2022-10-16T02:09:03;4.57;;;4.03;;
15155;SDS011;7678;50.058;8.306;2022-10-16T02:11:31;5.93;;;4.10;;
15155;SDS011;7678;50.058;8.306;2022-10-16T02:14:01;5.10;;;4.23;;
15155;SDS011;7678;50.058;8.306;2022-10-16T02:16:32;5.40;;;3.93;;
15155;SDS011;7678;50.058;8.306;2022-10-16T02:19:02;5.63;;;4.10;;
15155;SDS011;7678;50.058;8.306;2022-10-16T02:21:33;4.50;;;3.70;;
15155;SDS011;7678;50.058;8.306;2022-10-16T02:24:08;6.00;;;3.77;;
15155;SDS011;7678;50.058;8.306;2022-10-16T02:26:45;4.83;;;4.27;;
15155;SDS011;7678;50.058;8.306;2022-10-16T02:29:21;7.17;;;3.70;;
15155;SDS011;7678;50.058;8.306;2022-10-16T02:31:55;4.60;;;4.20;;
15155;SDS011;7678;50.058;8.306;2022-10-16T02:34:26;5.43;;;4.30;;
15155;SDS011;7678;50.058;8.306;2022-10-16T02:36:56;6.87;;;4.87;;
15155;SDS011;7678;50.058;8.306;2022-10-16T02:39:26;6.13;;;4.33;;
15155;SDS011;7678;50.058;8.306;2022-10-16T02:41:56;4.97;;;4.00;;
15155;SDS011;7678;50.058;8.306;2022-10-16T02:44:25;4.10;;;3.67;;
15155;SDS011;7678;50.058;8.306;2022-10-16T02:46:57;4.30;;;3.90;;
15155;SDS011;7678;50.058;8.306;2022-10-16T02:49:26;4.30;;;3.90;;
15155;SDS011;7678;50.058;8.306;2022-10-16T02:51:54;5.53;;;4.03;;
15155;SDS011;7678;50.058;8.306;2022-10-16T02:54:24;5.63;;;4.90;;
15155;SDS011;7678;50.058;8.306;2022-10-16T02:56:56;6.20;;;4.30;;
15155;SDS011;7678;50.058;8.306;2022-10-16T02:59:26;4.90;;;4.50;;
15155;SDS011;7678;50.058;8.306;2022-10-16T03:01:54;6.23;;;3.90;;
15155;SDS011;7678;50.058;8.306;2022-10-16T03:04:22;6.10;;;3.87;;
15155;SDS011;7678;50.058;8.306;2022-10-16T03:06:50;5.83;;;4.77;;
15155;SDS011;7678;50.058;8.306;2022-10-16T03:09:20;5.57;;;4.83;;
15155;SDS011;7678;50.058;8.306;2022-10-16T03:11:48;6.37;;;5.10;;
15155;SDS011;7678;50.058;8.306;2022-10-16T03:14:16;6.60;;;5.07;;
15155;SDS011;7678;50.058;8.306;2022-10-16T03:16:46;5.30;;;3.80;;
15155;SDS011;7678;50.058;8.306;2022-10-16T03:19:16;6.00;;;4.50;;
15155;SDS011;7678;50.058;8.306;2022-10-16T03:21:44;5.03;;;4.43;;
15155;SDS011;7678;50.058;8.306;2022-10-16T03:24:14;7.50;;;4.60;;
15155;SDS011;7678;50.058;8.306;2022-10-16T03:26:42;6.57;;;5.00;;
15155;SDS011;7678;50.058;8.306;2022-10-16T03:29:10;9.50;;;5.60;;
15155;SDS011;7678;50.058;8.306;2022-10-16T03:31:38;7.03;;;4.70;;
15155;SDS011;7678;50.058;8.306;2022-10-16T03:34:08;5.70;;;5.20;;
15155;SDS011;7678;50.058;8.306;2022-10-16T03:36:38;8.00;;;5.63;;
15155;SDS011;7678;50.058;8.306;2022-10-16T03:39:06;8.20;;;5.47;;
15155;SDS011;7678;50.058;8.306;2022-10-16T03:41:35;6.50;;;4.23;;
15155;SDS011;7678;50.058;8.306;2022-10-16T03:44:04;5.20;;;4.57;;
15155;SDS011;7678;50.058;8.306;2022-10-16T03:46:32;6.57;;;4.80;;
15155;SDS011;7678;50.058;8.306;2022-10-16T03:49:01;5.83;;;4.97;;
15155;SDS011;7678;50.058;8.306;2022-10-16T03:51:35;5.87;;;4.37;;
15155;SDS011;7678;50.058;8.306;2022-10-16T03:54:03;5.00;;;4.50;;
15155;SDS011;7678;50.058;8.306;2022-10-16T03:56:32;8.17;;;4.83;;
15155;SDS011;7678;50.058;8.306;2022-10-16T03:59:00;5.17;;;4.67;;
15155;SDS011;7678;50.058;8.306;2022-10-16T04:01:29;5.90;;;4.90;;
15155;SDS011;7678;50.058;8.306;2022-10-16T04:03:57;10.47;;;4.77;;
15155;SDS011;7678;50.058;8.306;2022-10-16T04:06:26;4.93;;;4.43;;
15155;SDS011;7678;50.058;8.306;2022-10-16T04:08:58;5.57;;;4.80;;
15155;SDS011;7678;50.058;8.306;2022-10-16T04:11:33;4.97;;;4.33;;
15155;SDS011;7678;50.058;8.306;2022-10-16T04:14:01;7.87;;;4.93;;
15155;SDS011;7678;50.058;8.306;2022-10-16T04:16:30;5.80;;;4.33;;
15155;SDS011;7678;50.058;8.306;2022-10-16T04:18:59;5.97;;;4.23;;
15155;SDS011;7678;50.058;8.306;2022-10-16T04:21:27;5.77;;;4.83;;
15155;SDS011;7678;50.058;8.306;2022-10-16T04:23:55;7.70;;;4.93;;
15155;SDS011;7678;50.058;8.306;2022-10-16T04:26:26;7.37;;;5.27;;
15155;SDS011;7678;50.058;8.306;2022-10-16T04:28:55;9.40;;;5.40;;
15155;SDS011;7678;50.058;8.306;2022-10-16T04:31:24;5.53;;;4.73;;
15155;SDS011;7678;50.058;8.306;2022-10-16T04:33:52;6.53;;;4.80;;
15155;SDS011;7678;50.058;8.306;2022-10-16T04:36:25;5.90;;;5.13;;
15155;SDS011;7678;50.058;8.306;2022-10-16T04:38:54;5.17;;;4.67;;
15155;SDS011;7678;50.058;8.306;2022-10-16T04:41:24;7.77;;;5.13;;
15155;SDS011;7678;50.058;8.306;2022-10-16T04:43:52;4.83;;;4.43;;
15155;SDS011;7678;50.058;8.306;2022-10-16T04:46:21;6.47;;;4.80;;
15155;SDS011;7678;50.058;8.306;2022-10-16T04:48:49;7.33;;;4.40;;
15155;SDS011;7678;50.058;8.306;2022-10-16T04:51:18;5.53;;;4.33;;
15155;SDS011;7678;50.058;8.306;2022-10-16T04:53:47;5.90;;;5.30;;
15155;SDS011;7678;50.058;8.306;2022-10-16T04:56:15;6.33;;;5.10;;
15155;SDS011;7678;50.058;8.306;2022-10-16T04:58:45;6.70;;;4.27;;
15155;SDS011;7678;50.058;8.306;2022-10-16T05:01:14;4.83;;;4.40;;
15155;SDS011;7678;50.058;8.306;2022-10-16T05:03:43;6.50;;;4.90;;
15155;SDS011;7678;50.058;8.306;2022-10-16T05:06:11;7.00;;;5.30;;
15155;SDS011;7678;50.058;8.306;2022-10-16T05:08:40;5.30;;;4.80;;
15155;SDS011;7678;50.058;8.306;2022-10-16T05:11:08;9.20;;;6.03;;
15155;SDS011;7678;50.058;8.306;2022-10-16T05:13:36;8.73;;;5.50;;
15155;SDS011;7678;50.058;8.306;2022-10-16T05:16:06;6.40;;;4.90;;
15155;SDS011;7678;50.058;8.306;2022-10-16T05:18:35;6.63;;;5.40;;
15155;SDS011;7678;50.058;8.306;2022-10-16T05:21:03;7.63;;;6.13;;
15155;SDS011;7678;50.058;8.306;2022-10-16T05:23:32;8.33;;;6.47;;
15155;SDS011;7678;50.058;8.306;2022-10-16T05:26:01;6.50;;;5.70;;
15155;SDS011;7678;50.058;8.306;2022-10-16T05:28:29;8.40;;;7.50;;
15155;SDS011;7678;50.058;8.306;2022-10-16T05:30:58;10.00;;;7.70;;
15155;SDS011;7678;50.058;8.306;2022-10-16T05:33:28;10.07;;;6.50;;
15155;SDS011;7678;50.058;8.306;2022-10-16T05:35:56;11.07;;;7.53;;
15155;SDS011;7678;50.058;8.306;2022-10-16T05:38:29;10.37;;;7.77;;
15155;SDS011;7678;50.058;8.306;2022-10-16T05:40:57;11.17;;;7.67;;
15155;SDS011;7678;50.058;8.306;2022-10-16T05:43:26;14.17;;;7.77;;
15155;SDS011;7678;50.058;8.306;2022-10-16T05:45:56;15.00;;;8.80;;
15155;SDS011;7678;50.058;8.306;2022-10-16T05:48:25;12.50;;;7.43;;
15155;SDS011;7678;50.058;8.306;2022-10-16T05:50:58;10.97;;;7.30;;
15155;SDS011;7678;50.058;8.306;2022-10-16T05:53:28;9.67;;;7.20;;
15155;SDS011;7678;50.058;8.306;2022-10-16T05:55:59;13.33;;;7.20;;
15155;SDS011;7678;50.058;8.306;2022-10-16T05:58:28;11.20;;;7.00;;
15155;SDS011;7678;50.058;8.306;2022-10-16T06:00:59;10.23;;;7.07;;
15155;SDS011;7678;50.058;8.306;2022-10-16T06:03:30;7.50;;;6.63;;
15155;SDS011;7678;50.058;8.306;2022-10-16T06:05:58;11.57;;;6.73;;
15155;SDS011;7678;50.058;8.306;2022-10-16T06:08:27;9.70;;;6.97;;
15155;SDS011;7678;50.058;8.306;2022-10-16T06:11:00;8.33;;;6.00;;
15155;SDS011;7678;50.058;8.306;2022-10-16T06:13:30;8.27;;;6.80;;
15155;SDS011;7678;50.058;8.306;2022-10-16T06:15:59;10.87;;;7.63;;
15155;SDS011;7678;50.058;8.306;2022-10-16T06:18:32;13.10;;;8.30;;
15155;SDS011;7678;50.058;8.306;2022-10-16T06:21:06;14.50;;;8.87;;
15155;SDS011;7678;50.058;8.306;2022-10-16T06:23:37;22.80;;;18.43;;
15155;SDS011;7678;50.058;8.306;2022-10-16T06:26:07;20.03;;;14.40;;
15155;SDS011;7678;50.058;8.306;2022-10-16T06:28:37;13.90;;;9.03;;
15155;SDS011;7678;50.058;8.306;2022-10-16T06:31:09;10.87;;;7.33;;
15155;SDS011;7678;50.058;8.306;2022-10-16T06:33:49;15.23;;;7.87;;
15155;SDS011;7678;50.058;8.306;2022-10-16T06:36:20;12.83;;;8.23;;
15155;SDS011;7678;50.058;8.306;2022-10-16T06:38:49;11.33;;;8.13;;
15155;SDS011;7678;50.058;8.306;2022-10-16T06:41:19;10.77;;;7.67;;
15155;SDS011;7678;50.058;8.306;2022-10-16T06:43:49;10.50;;;7.47;;
15155;SDS011;7678;50.058;8.306;2022-10-16T06:46:21;9.63;;;6.97;;
15155;SDS011;7678;50.058;8.306;2022-10-16T06:48:53;9.63;;;7.13;;
15155;SDS011;7678;50.058;8.306;2022-10-16T06:51:24;11.73;;;6.80;;
15155;SDS011;7678;50.058;8.306;2022-10-16T06:53:54;8.47;;;6.53;;
15155;SDS011;7678;50.058;8.306;2022-10-16T06:56:30;10.33;;;5.67;;
15155;SDS011;7678;50.058;8.306;2022-10-16T06:59:00;6.87;;;5.57;;
15155;SDS011;7678;50.058;8.306;2022-10-16T07:01:31;12.00;;;6.67;;
15155;SDS011;7678;50.058;8.306;2022-10-16T07:04:02;11.87;;;6.40;;
15155;SDS011;7678;50.058;8.306;2022-10-16T07:06:33;6.30;;;4.90;;
15155;SDS011;7678;50.058;8.306;2022-10-16T07:09:03;12.27;;;6.27;;
15155;SDS011;7678;50.058;8.306;2022-10-16T07:11:47;9.43;;;5.87;;
15155;SDS011;7678;50.058;8.306;2022-10-16T07:14:16;10.27;;;6.03;;
15155;SDS011;7678;50.058;8.306;2022-10-16T07:16:47;8.33;;;5.07;;
15155;SDS011;7678;50.058;8.306;2022-10-16T07:25:32;9.90;;;6.40;;
15155;SDS011;7678;50.058;8.306;2022-10-16T07:28:16;7.37;;;5.63;;
15155;SDS011;7678;50.058;8.306;2022-10-16T07:31:06;7.80;;;5.13;;
15155;SDS011;7678;50.058;8.306;2022-10-16T07:33:46;8.50;;;6.37;;
15155;SDS011;7678;50.058;8.306;2022-10-16T07:36:18;20.77;;;13.23;;
15155;SDS011;7678;50.058;8.306;2022-10-16T07:38:56;20.20;;;12.80;;
15155;SDS011;7678;50.058;8.306;2022-10-16T07:41:39;15.93;;;11.77;;
15155;SDS011;7678;50.058;8.306;2022-10-16T07:44:10;14.87;;;10.00;;
15155;SDS011;7678;50.058;8.306;2022-10-16T07:46:46;15.10;;;11.43;;
15155;SDS011;7678;50.058;8.306;2022-10-16T07:49:17;10.43;;;8.53;;
15155;SDS011;7678;50.058;8.306;2022-10-16T07:52:00;9.27;;;7.57;;
15155;SDS011;7678;50.058;8.306;2022-10-16T07:54:32;10.57;;;7.90;;
15155;SDS011;7678;50.058;8.306;2022-10-16T07:57:08;9.43;;;7.43;;
15155;SDS011;7678;50.058;8.306;2022-10-16T07:59:46;7.97;;;7.17;;
15155;SDS011;7678;50.058;8.306;2022-10-16T08:02:20;11.03;;;6.97;;
15155;SDS011;7678;50.058;8.306;2022-10-16T08:04:50;13.40;;;7.93;;
15155;SDS011;7678;50.058;8.306;2022-10-16T08:07:32;10.07;;;8.33;;
15155;SDS011;7678;50.058;8.306;2022-10-16T08:10:15;10.53;;;7.10;;
15155;SDS011;7678;50.058;8.306;2022-10-16T08:12:47;10.50;;;7.10;;
15155;SDS011;7678;50.058;8.306;2022-10-16T08:15:30;7.37;;;5.83;;
15155;SDS011;7678;50.058;8.306;2022-10-16T08:18:14;16.90;;;6.40;;
15155;SDS011;7678;50.058;8.306;2022-10-16T08:20:47;9.90;;;6.07;;
15155;SDS011;7678;50.058;8.306;2022-10-16T08:23:27;9.20;;;6.20;;
15155;SDS011;7678;50.058;8.306;2022-10-16T08:28:43;9.53;;;7.67;;
15155;SDS011;7678;50.058;8.306;2022-10-16T08:31:15;8.93;;;7.30;;
15155;SDS011;7678;50.058;8.306;2022-10-16T08:33:46;7.87;;;6.83;;
15155;SDS011;7678;50.058;8.306;2022-10-16T08:36:21;8.77;;;6.27;;
15155;SDS011;7678;50.058;8.306;2022-10-16T08:38:56;10.97;;;6.77;;
15155;SDS011;7678;50.058;8.306;2022-10-16T08:44:47;9.30;;;6.37;;
15155;SDS011;7678;50.058;8.306;2022-10-16T08:47:45;15.40;;;7.20;;
15155;SDS011;7678;50.058;8.306;2022-10-16T08:50:22;13.30;;;8.97;;
15155;SDS011;7678;50.058;8.306;2022-10-16T08:52:55;16.13;;;12.97;;
15155;SDS011;7678;50.058;8.306;2022-10-16T08:55:33;11.67;;;5.60;;
15155;SDS011;7678;50.058;8.306;2022-10-16T08:58:20;19.47;;;11.80;;
15155;SDS011;7678;50.058;8.306;2022-10-16T09:00:59;9.10;;;5.13;;
15155;SDS011;7678;50.058;8.306;2022-10-16T09:03:33;5.80;;;4.40;;
15155;SDS011;7678;50.058;8.306;2022-10-16T09:06:30;4.27;;;3.87;;
15155;SDS011;7678;50.058;8.306;2022-10-16T09:09:20;7.03;;;4.07;;
15155;SDS011;7678;50.058;8.306;2022-10-16T09:12:15;8.47;;;4.00;;
15155;SDS011;7678;50.058;8.306;2022-10-16T09:14:58;4.47;;;3.50;;
15155;SDS011;7678;50.058;8.306;2022-10-16T09:17:37;5.10;;;3.20;;
15155;SDS011;7678;50.058;8.306;2022-10-16T09:23:15;5.80;;;3.10;;
15155;SDS011;7678;50.058;8.306;2022-10-16T09:25:47;5.93;;;3.50;;
15155;SDS011;7678;50.058;8.306;2022-10-16T09:28:25;4.93;;;3.10;;
15155;SDS011;7678;50.058;8.306;2022-10-16T09:30:55;6.60;;;4.10;;
15155;SDS011;7678;50.058;8.306;2022-10-16T09:33:29;22.57;;;19.30;;
15155;SDS011;7678;50.058;8.306;2022-10-16T09:36:08;14.77;;;11.13;;
15155;SDS011;7678;50.058;8.306;2022-10-16T09:38:37;12.93;;;11.57;;
15155;SDS011;7678;50.058;8.306;2022-10-16T09:41:17;14.00;;;12.50;;
15155;SDS011;7678;50.058;8.306;2022-10-16T09:43:49;10.17;;;9.00;;
15155;SDS011;7678;50.058;8.306;2022-10-16T09:46:27;6.43;;;5.20;;
15155;SDS011;7678;50.058;8.306;2022-10-16T09:48:59;6.50;;;3.63;;
15155;SDS011;7678;50.058;8.306;2022-10-16T09:51:31;7.70;;;6.43;;
15155;SDS011;7678;50.058;8.306;2022-10-16T09:54:13;9.60;;;6.73;;
15155;SDS011;7678;50.058;8.306;2022-10-16T09:56:44;11.17;;;6.23;;
15155;SDS011;7678;50.058;8.306;2022-10-16T09:59:19;6.60;;;4.77;;
15155;SDS011;7678;50.058;8.306;2022-10-16T10:01:51;3.87;;;2.90;;
15155;SDS011;7678;50.058;8.306;2022-10-16T10:04:24;3.43;;;2.47;;
15155;SDS011;7678;50.058;8.306;2022-10-16T10:06:56;5.43;;;2.57;;
15155;SDS011;7678;50.058;8.306;2022-10-16T10:09:26;4.60;;;1.67;;
15155;SDS011;7678;50.058;8.306;2022-10-16T10:12:16;3.07;;;2.10;;
15155;SDS011;7678;50.058;8.306;2022-10-16T10:14:53;4.40;;;2.23;;
15155;SDS011;7678;50.058;8.306;2022-10-16T10:17:25;2.60;;;2.30;;
15155;SDS011;7678;50.058;8.306;2022-10-16T10:20:13;3.80;;;2.07;;
15155;SDS011;7678;50.058;8.306;2022-10-16T10:22:59;4.93;;;1.80;;
15155;SDS011;7678;50.058;8.306;2022-10-16T10:25:38;5.70;;;1.90;;
15155;SDS011;7678;50.058;8.306;2022-10-16T10:28:21;4.43;;;1.97;;
15155;SDS011;7678;50.058;8.306;2022-10-16T10:31:16;6.20;;;2.20;;
15155;SDS011;7678;50.058;8.306;2022-10-16T10:33:58;4.20;;;1.80;;
15155;SDS011;7678;50.058;8.306;2022-10-16T10:36:52;4.43;;;1.93;;
15155;SDS011;7678;50.058;8.306;2022-10-16T10:39:31;3.83;;;2.30;;
15155;SDS011;7678;50.058;8.306;2022-10-16T10:42:09;7.23;;;3.07;;
15155;SDS011;7678;50.058;8.306;2022-10-16T10:44:59;7.17;;;3.50;;
15155;SDS011;7678;50.058;8.306;2022-10-16T10:47:52;4.23;;;2.80;;
15155;SDS011;7678;50.058;8.306;2022-10-16T10:50:43;6.23;;;3.17;;
15155;SDS011;7678;50.058;8.306;2022-10-16T10:53:21;5.17;;;2.10;;
15155;SDS011;7678;50.058;8.306;2022-10-16T10:56:00;2.93;;;1.97;;
15155;SDS011;7678;50.058;8.306;2022-10-16T11:01:45;2.70;;;1.73;;
15155;SDS011;7678;50.058;8.306;2022-10-16T11:04:37;2.83;;;1.87;;
15155;SDS011;7678;50.058;8.306;2022-10-16T11:07:21;3.33;;;1.73;;
15155;SDS011;7678;50.058;8.306;2022-10-16T11:09:57;5.30;;;2.20;;
15155;SDS011;7678;50.058;8.306;2022-10-16T11:12:33;5.30;;;2.07;;
15155;SDS011;7678;50.058;8.306;2022-10-16T11:15:07;5.80;;;2.07;;
15155;SDS011;7678;50.058;8.306;2022-10-16T11:17:45;3.73;;;2.27;;
15155;SDS011;7678;50.058;8.306;2022-10-16T11:20:26;4.13;;;2.07;;
15155;SDS011;7678;50.058;8.306;2022-10-16T11:23:00;4.10;;;1.90;;
15155;SDS011;7678;50.058;8.306;2022-10-16T11:25:40;4.67;;;2.07;;
15155;SDS011;7678;50.058;8.306;2022-10-16T11:28:11;4.87;;;2.23;;
15155;SDS011;7678;50.058;8.306;2022-10-16T11:30:46;5.80;;;2.07;;
15155;SDS011;7678;50.058;8.306;2022-10-16T11:33:22;2.77;;;1.87;;
15155;SDS011;7678;50.058;8.306;2022-10-16T11:36:16;4.77;;;2.03;;
15155;SDS011;7678;50.058;8.306;2022-10-16T11:39:03;1.50;;;1.40;;
15155;SDS011;7678;50.058;8.306;2022-10-16T11:41:44;2.83;;;1.67;;
15155;SDS011;7678;50.058;8.306;2022-10-16T11:44:18;1.97;;;1.63;;
15155;SDS011;7678;50.058;8.306;2022-10-16T11:47:07;4.30;;;1.40;;
15155;SDS011;7678;50.058;8.306;2022-10-16T11:50:17;2.17;;;1.50;;
15155;SDS011;7678;50.058;8.306;2022-10-16T11:52:55;6.10;;;1.70;;
15155;SDS011;7678;50.058;8.306;2022-10-16T11:55:36;3.50;;;1.20;;
15155;SDS011;7678;50.058;8.306;2022-10-16T11:58:15;3.90;;;1.67;;
15155;SDS011;7678;50.058;8.306;2022-10-16T12:00:53;2.57;;;1.47;;
15155;SDS011;7678;50.058;8.306;2022-10-16T12:03:30;4.33;;;1.83;;
15155;SDS011;7678;50.058;8.306;2022-10-16T12:06:19;2.97;;;1.70;;
15155;SDS011;7678;50.058;8.306;2022-10-16T12:09:09;4.67;;;1.97;;
15155;SDS011;7678;50.058;8.306;2022-10-16T12:11:44;5.83;;;1.80;;
15155;SDS011;7678;50.058;8.306;2022-10-16T12:14:38;4.63;;;2.27;;
15155;SDS011;7678;50.058;8.306;2022-10-16T12:17:34;2.40;;;1.90;;
15155;SDS011;7678;50.058;8.306;2022-10-16T12:20:18;2.13;;;1.47;;
15155;SDS011;7678;50.058;8.306;2022-10-16T12:22:51;3.30;;;1.87;;
15155;SDS011;7678;50.058;8.306;2022-10-16T12:25:26;1.80;;;1.53;;
15155;SDS011;7678;50.058;8.306;2022-10-16T12:28:15;3.00;;;1.73;;
15155;SDS011;7678;50.058;8.306;2022-10-16T12:30:53;4.57;;;2.13;;
15155;SDS011;7678;50.058;8.306;2022-10-16T12:33:24;3.43;;;1.90;;
15155;SDS011;7678;50.058;8.306;2022-10-16T12:35:53;3.40;;;2.30;;
15155;SDS011;7678;50.058;8.306;2022-10-16T12:38:26;3.07;;;1.90;;
15155;SDS011;7678;50.058;8.306;2022-10-16T12:40:57;4.13;;;2.00;;
15155;SDS011;7678;50.058;8.306;2022-10-16T12:43:35;4.90;;;2.13;;
15155;SDS011;7678;50.058;8.306;2022-10-16T12:46:21;7.77;;;1.90;;
15155;SDS011;7678;50.058;8.306;2022-10-16T12:48:51;3.40;;;1.97;;
15155;SDS011;7678;50.058;8.306;2022-10-16T12:51:34;1.87;;;1.73;;
15155;SDS011;7678;50.058;8.306;2022-10-16T12:54:05;2.80;;;1.30;;
15155;SDS011;7678;50.058;8.306;2022-10-16T12:56:41;3.83;;;1.20;;
15155;SDS011;7678;50.058;8.306;2022-10-16T12:59:25;2.03;;;1.60;;
15155;SDS011;7678;50.058;8.306;2022-10-16T13:05:11;6.83;;;4.10;;
15155;SDS011;7678;50.058;8.306;2022-10-16T13:07:53;4.43;;;1.83;;
15155;SDS011;7678;50.058;8.306;2022-10-16T13:10:28;3.00;;;1.70;;
15155;SDS011;7678;50.058;8.306;2022-10-16T13:13:07;1.30;;;1.20;;
15155;SDS011;7678;50.058;8.306;2022-10-16T13:15:51;2.17;;;1.57;;
15155;SDS011;7678;50.058;8.306;2022-10-16T13:18:29;1.83;;;1.53;;
15155;SDS011;7678;50.058;8.306;2022-10-16T13:21:16;2.80;;;1.50;;
15155;SDS011;7678;50.058;8.306;2022-10-16T13:23:52;2.10;;;1.40;;
15155;SDS011;7678;50.058;8.306;2022-10-16T13:26:30;2.63;;;1.70;;
15155;SDS011;7678;50.058;8.306;2022-10-16T13:29:06;2.07;;;1.47;;
15155;SDS011;7678;50.058;8.306;2022-10-16T13:31:36;1.40;;;1.10;;
15155;SDS011;7678;50.058;8.306;2022-10-16T13:34:06;1.20;;;1.10;;
15155;SDS011;7678;50.058;8.306;2022-10-16T13:36:47;1.97;;;1.40;;
15155;SDS011;7678;50.058;8.306;2022-10-16T13:39:20;1.93;;;1.10;;
15155;SDS011;7678;50.058;8.306;2022-10-16T13:42:03;1.93;;;1.30;;
15155;SDS011;7678;50.058;8.306;2022-10-16T13:44:35;1.10;;;0.90;;
15155;SDS011;7678;50.058;8.306;2022-10-16T13:47:11;1.73;;;1.20;;
15155;SDS011;7678;50.058;8.306;2022-10-16T13:49:44;5.57;;;1.57;;
15155;SDS011;7678;50.058;8.306;2022-10-16T13:52:16;4.30;;;1.30;;
15155;SDS011;7678;50.058;8.306;2022-10-16T13:54:46;1.83;;;1.13;;
15155;SDS011;7678;50.058;8.306;2022-10-16T13:57:27;1.10;;;1.00;;
15155;SDS011;7678;50.058;8.306;2022-10-16T13:59:57;3.20;;;1.30;;
15155;SDS011;7678;50.058;8.306;2022-10-16T14:02:26;2.63;;;1.20;;
15155;SDS011;7678;50.058;8.306;2022-10-16T14:04:57;1.80;;;1.17;;
15155;SDS011;7678;50.058;8.306;2022-10-16T14:07:28;1.40;;;1.20;;
15155;SDS011;7678;50.058;8.306;2022-10-16T14:10:03;2.00;;;1.30;;
15155;SDS011;7678;50.058;8.306;2022-10-16T14:12:32;6.53;;;4.33;;
15155;SDS011;7678;50.058;8.306;2022-10-16T14:15:01;2.73;;;1.97;;
15155;SDS011;7678;50.058;8.306;2022-10-16T14:17:31;2.80;;;1.40;;
15155;SDS011;7678;50.058;8.306;2022-10-16T14:20:02;1.70;;;1.60;;
15155;SDS011;7678;50.058;8.306;2022-10-16T14:22:35;4.40;;;1.47;;
15155;SDS011;7678;50.058;8.306;2022-10-16T14:25:19;3.33;;;1.30;;
15155;SDS011;7678;50.058;8.306;2022-10-16T14:28:01;1.73;;;1.40;;
15155;SDS011;7678;50.058;8.306;2022-10-16T14:30:31;2.37;;;1.30;;
15155;SDS011;7678;50.058;8.306;2022-10-16T14:33:02;2.53;;;1.60;;
15155;SDS011;7678;50.058;8.306;2022-10-16T14:35:33;2.50;;;1.40;;
15155;SDS011;7678;50.058;8.306;2022-10-16T14:38:15;2.60;;;1.50;;
15155;SDS011;7678;50.058;8.306;2022-10-16T14:40:48;5.57;;;1.50;;
15155;SDS011;7678;50.058;8.306;2022-10-16T14:43:20;2.80;;;1.27;;
15155;SDS011;7678;50.058;8.306;2022-10-16T14:45:50;4.90;;;1.80;;
15155;SDS011;7678;50.058;8.306;2022-10-16T14:48:23;2.10;;;1.60;;
15155;SDS011;7678;50.058;8.306;2022-10-16T14:50:54;1.70;;;1.60;;
15155;SDS011;7678;50.058;8.306;2022-10-16T14:53:24;1.90;;;1.30;;
15155;SDS011;7678;50.058;8.306;2022-10-16T14:55:53;3.10;;;1.80;;
15155;SDS011;7678;50.058;8.306;2022-10-16T14:58:22;3.50;;;1.50;;
15155;SDS011;7678;50.058;8.306;2022-10-16T15:00:53;2.90;;;1.40;;
15155;SDS011;7678;50.058;8.306;2022-10-16T15:03:23;1.60;;;1.40;;
15155;SDS011;7678;50.058;8.306;2022-10-16T15:05:51;13.67;;;2.10;;
15155;SDS011;7678;50.058;8.306;2022-10-16T15:08:20;3.40;;;1.47;;
15155;SDS011;7678;50.058;8.306;2022-10-16T15:10:50;2.03;;;1.57;;
15155;SDS011;7678;50.058;8.306;2022-10-16T15:13:19;2.00;;;1.70;;
15155;SDS011;7678;50.058;8.306;2022-10-16T15:15:47;3.03;;;1.70;;
15155;SDS011;7678;50.058;8.306;2022-10-16T15:18:17;2.00;;;1.40;;
15155;SDS011;7678;50.058;8.306;2022-10-16T15:20:47;3.60;;;1.33;;
15155;SDS011;7678;50.058;8.306;2022-10-16T15:23:17;1.83;;;1.50;;
15155;SDS011;7678;50.058;8.306;2022-10-16T15:25:47;1.80;;;1.70;;
15155;SDS011;7678;50.058;8.306;2022-10-16T15:28:18;3.87;;;1.53;;
15155;SDS011;7678;50.058;8.306;2022-10-16T15:30:48;2.20;;;1.63;;
15155;SDS011;7678;50.058;8.306;2022-10-16T15:33:18;1.90;;;1.70;;
15155;SDS011;7678;50.058;8.306;2022-10-16T15:35:49;7.43;;;3.70;;
15155;SDS011;7678;50.058;8.306;2022-10-16T15:38:18;3.83;;;3.00;;
15155;SDS011;7678;50.058;8.306;2022-10-16T15:40:48;3.67;;;2.77;;
15155;SDS011;7678;50.058;8.306;2022-10-16T15:43:18;2.10;;;1.90;;
15155;SDS011;7678;50.058;8.306;2022-10-16T15:45:52;2.00;;;1.90;;
15155;SDS011;7678;50.058;8.306;2022-10-16T15:48:28;5.03;;;2.63;;
15155;SDS011;7678;50.058;8.306;2022-10-16T15:50:56;2.43;;;1.90;;
15155;SDS011;7678;50.058;8.306;2022-10-16T15:53:25;5.53;;;2.00;;
15155;SDS011;7678;50.058;8.306;2022-10-16T15:55:53;10.87;;;4.90;;
15155;SDS011;7678;50.058;8.306;2022-10-16T15:58:23;12.37;;;7.77;;
15155;SDS011;7678;50.058;8.306;2022-10-16T16:00:55;18.83;;;10.53;;
15155;SDS011;7678;50.058;8.306;2022-10-16T16:03:27;19.93;;;10.40;;